METAR Data
IDs: Format: Raw Decoded Include TAF

Data at: 0345 UTC 06 Dec 2019

METAR for:KHLX (Hillsville/Twin Cnty, VA, US)
Text:KHLX 060335Z AUTO 22006KT 10SM CLR 03/M06 A3015 RMK AO2 T00251060
Temperature: 2.5°C ( 36°F)
Dewpoint: -6.0°C ( 21°F) [RH = 53%]
Pressure (altimeter):30.15 inches Hg (1021.1 mb)
Winds:from the SW (220 degrees) at 7 MPH (6 knots; 3.1 m/s)
Visibility:10 or more sm (16+ km)
Ceiling:at least 12,000 feet AGL
Clouds:sky clear below 12,000 feet AGL
QC Flag:automated observation with no human augmentation